createdAt,value
2023-07-18T00:02:40.615Z,100276.69
2023-07-18T00:05:42.637Z,100287.41
2023-07-18T00:08:45.063Z,100304.78
2023-07-18T00:11:47.574Z,100293.63
2023-07-18T00:14:49.512Z,100297.50
2023-07-18T00:17:51.583Z,100296.66
2023-07-18T00:20:53.433Z,100269.34
2023-07-18T00:23:55.707Z,100251.66
2023-07-18T00:27:01.098Z,100301.59
2023-07-18T00:30:04.204Z,100289.34
2023-07-18T00:33:06.711Z,100294.06
2023-07-18T00:36:08.554Z,100297.25
2023-07-18T00:39:10.310Z,100299.81
2023-07-18T00:42:12.139Z,100293.63
2023-07-18T00:45:15.037Z,100285.72
2023-07-18T00:48:17.534Z,100285.59
2023-07-18T00:51:20.223Z,100315.25
2023-07-18T00:54:22.389Z,100298.75
2023-07-18T00:57:24.406Z,100319.41
2023-07-18T01:00:26.290Z,100315.41
2023-07-18T01:03:28.329Z,100293.34
2023-07-18T01:06:30.217Z,100322.91
2023-07-18T01:09:32.305Z,100329.09
2023-07-18T01:12:34.137Z,100306.81
2023-07-18T01:15:36.079Z,100316.34
2023-07-18T01:18:38.347Z,100323.41
2023-07-18T01:21:40.513Z,100327.25
2023-07-18T01:24:42.389Z,100322.84
2023-07-18T01:27:49.294Z,100292.19
2023-07-18T01:30:51.305Z,100313.53
2023-07-18T01:33:53.247Z,100313.84
2023-07-18T01:36:56.075Z,100332.16
2023-07-18T01:39:58.342Z,100323.41
2023-07-18T01:43:00.151Z,100315.56
2023-07-18T01:46:02.895Z,100329.78
2023-07-18T01:49:05.787Z,100332.66
2023-07-18T01:52:07.963Z,100329.25
2023-07-18T01:55:11.182Z,100328.28
2023-07-18T01:58:13.088Z,100335.13
2023-07-18T02:01:15.424Z,100340.97
2023-07-18T02:04:17.316Z,100342.06
2023-07-18T02:07:19.188Z,100318.66
2023-07-18T02:10:22.415Z,100338.41
2023-07-18T02:13:24.755Z,100327.84
2023-07-18T02:16:27.349Z,100333.19
2023-07-18T02:19:30.074Z,100349.03
2023-07-18T02:22:32.339Z,100340.75
2023-07-18T02:25:35.881Z,100344.38
2023-07-18T02:28:37.827Z,100334.38
2023-07-18T02:31:40.707Z,100350.63
2023-07-18T02:34:42.608Z,100355.75
2023-07-18T02:37:45.001Z,100337.47
2023-07-18T02:40:47.079Z,100356.44
2023-07-18T02:43:49.046Z,100371.00
2023-07-18T02:46:50.874Z,100372.19
2023-07-18T02:49:52.732Z,100368.25
2023-07-18T02:52:59.458Z,100352.66
2023-07-18T02:56:01.596Z,100365.22
2023-07-18T02:59:03.656Z,100369.81
2023-07-18T03:02:05.835Z,100373.31
2023-07-18T03:05:08.564Z,100343.19
2023-07-18T03:08:10.399Z,100368.06
2023-07-18T03:11:12.441Z,100335.47
2023-07-18T03:14:15.821Z,100385.13
2023-07-18T03:17:17.700Z,100360.81
2023-07-18T03:20:21.085Z,100376.91
2023-07-18T03:23:26.955Z,100373.69
2023-07-18T03:26:28.805Z,100379.22
2023-07-18T03:29:30.646Z,100388.69
2023-07-18T03:32:32.499Z,100360.16
2023-07-18T03:35:35.071Z,100384.94
2023-07-18T03:38:37.308Z,100382.69
2023-07-18T03:41:39.646Z,100360.56
2023-07-18T03:44:42.663Z,100388.97
2023-07-18T03:47:45.094Z,100387.31
2023-07-18T03:50:46.960Z,100395.59
2023-07-18T03:53:49.149Z,100388.88
2023-07-18T03:56:52.147Z,100381.09
2023-07-18T03:59:53.944Z,100399.44
2023-07-18T04:02:55.874Z,100368.25
2023-07-18T04:05:57.706Z,100381.50
2023-07-18T04:08:59.999Z,100391.97
2023-07-18T04:12:02.123Z,100394.56
2023-07-18T04:15:04.162Z,100388.13
2023-07-18T04:18:06.081Z,100377.19
2023-07-18T04:21:08.174Z,100400.34
2023-07-18T04:24:10.344Z,100372.50
2023-07-18T04:27:12.382Z,100408.88
2023-07-18T04:30:14.482Z,100408.34
2023-07-18T04:33:16.352Z,100408.41
2023-07-18T04:36:18.477Z,100411.63
2023-07-18T04:39:20.482Z,100414.63
2023-07-18T04:42:22.836Z,100402.59
2023-07-18T04:45:24.747Z,100411.09
2023-07-18T04:48:26.952Z,100436.88
2023-07-18T04:51:30.423Z,100449.41
2023-07-18T04:54:33.192Z,100441.19
2023-07-18T04:57:37.814Z,100440.00
2023-07-18T05:00:40.980Z,100443.16
2023-07-18T05:03:56.741Z,100447.59
2023-07-18T05:07:00.260Z,100447.38
2023-07-18T05:10:03.542Z,100466.88
2023-07-18T05:13:05.433Z,100449.22
2023-07-18T05:16:07.354Z,100458.75
2023-07-18T05:19:10.773Z,100471.84
2023-07-18T05:22:13.669Z,100459.22
2023-07-18T05:25:16.863Z,100478.91
2023-07-18T05:28:22.253Z,100464.31
2023-07-18T05:31:30.221Z,100459.63
2023-07-18T05:34:34.382Z,100457.38
2023-07-18T05:37:38.893Z,100464.50
2023-07-18T05:40:42.388Z,100445.97
2023-07-18T05:43:44.225Z,100447.75
2023-07-18T05:46:46.140Z,100475.50
2023-07-18T05:49:49.709Z,100432.59
2023-07-18T05:52:52.643Z,100464.78
2023-07-18T05:55:57.177Z,100470.44
2023-07-18T05:59:00.507Z,100456.72
2023-07-18T06:02:06.507Z,100471.47
2023-07-18T06:05:11.068Z,100438.03
2023-07-18T06:08:13.007Z,100474.53
2023-07-18T06:11:14.985Z,100445.13
2023-07-18T06:14:17.437Z,100470.34
2023-07-18T06:17:20.695Z,100479.13
2023-07-18T06:20:22.713Z,100467.72
2023-07-18T06:23:24.680Z,100478.41
2023-07-18T06:26:26.539Z,100475.72
2023-07-18T06:29:28.379Z,100478.66
2023-07-18T06:32:30.495Z,100471.69
2023-07-18T06:35:33.620Z,100480.53
2023-07-18T06:38:35.630Z,100492.34
2023-07-18T06:41:37.432Z,100485.00
2023-07-18T06:44:39.620Z,100475.84
2023-07-18T06:47:43.151Z,100474.63
2023-07-18T06:50:50.895Z,100478.69
2023-07-18T06:53:53.314Z,100497.81
2023-07-18T06:56:55.617Z,100514.25
2023-07-18T06:59:57.440Z,100517.34
2023-07-18T07:02:59.433Z,100524.38
2023-07-18T07:06:01.491Z,100499.19
2023-07-18T07:09:05.070Z,100541.97
2023-07-18T07:12:08.577Z,100536.13
2023-07-18T07:15:11.152Z,100531.63
2023-07-18T07:18:13.033Z,100541.84
2023-07-18T07:21:15.934Z,100540.03
2023-07-18T07:24:18.120Z,100542.75
2023-07-18T07:27:20.812Z,100553.13
2023-07-18T07:30:25.765Z,100547.47
2023-07-18T07:33:27.641Z,100541.31
2023-07-18T07:36:29.521Z,100558.69
2023-07-18T07:39:31.425Z,100547.50
2023-07-18T07:42:33.512Z,100552.50
2023-07-18T07:45:35.380Z,100529.06
2023-07-18T07:48:37.243Z,100556.59
2023-07-18T07:51:39.490Z,100566.25
2023-07-18T07:54:42.182Z,100520.84
2023-07-18T07:57:44.013Z,100546.41
2023-07-18T08:00:45.841Z,100527.78
2023-07-18T08:03:47.665Z,100536.88
2023-07-18T08:06:49.700Z,100542.72
2023-07-18T08:09:51.584Z,100519.28
2023-07-18T08:12:53.579Z,100536.50
2023-07-18T08:15:56.615Z,100555.03
2023-07-18T08:18:58.555Z,100537.34
2023-07-18T08:22:00.436Z,100556.38
2023-07-18T08:25:02.709Z,100549.75
2023-07-18T08:28:04.702Z,100535.63
2023-07-18T08:31:06.671Z,100536.78
2023-07-18T08:34:08.833Z,100543.22
2023-07-18T08:37:11.126Z,100547.84
2023-07-18T08:40:14.058Z,100549.09
2023-07-18T08:43:17.426Z,100540.38
2023-07-18T08:46:20.273Z,100530.56
2023-07-18T08:49:24.930Z,100550.59
2023-07-18T08:52:27.130Z,100530.88
2023-07-18T08:55:30.918Z,100540.75
2023-07-18T08:58:33.006Z,100496.69
2023-07-18T09:01:35.048Z,100528.66
2023-07-18T09:04:36.950Z,100532.75
2023-07-18T09:07:38.774Z,100544.31
2023-07-18T09:10:40.720Z,100540.06
2023-07-18T09:13:43.386Z,100540.94
2023-07-18T09:16:45.193Z,100540.91
2023-07-18T09:19:49.927Z,100535.13
2023-07-18T09:22:56.411Z,100496.69
2023-07-18T09:25:58.224Z,100525.03
2023-07-18T09:29:00.890Z,100530.84
2023-07-18T09:32:03.024Z,100527.31
2023-07-18T09:35:05.591Z,100516.41
2023-07-18T09:38:08.928Z,100519.47
2023-07-18T09:41:11.942Z,100519.13
2023-07-18T09:47:24.142Z,100515.66
2023-07-18T09:50:27.369Z,100512.28
2023-07-18T09:53:32.408Z,100515.19
2023-07-18T09:56:36.889Z,100508.34
2023-07-18T09:59:40.363Z,100506.41
2023-07-18T10:02:43.708Z,100508.25
2023-07-18T10:05:46.231Z,100507.41
2023-07-18T10:08:48.840Z,100496.13
2023-07-18T10:11:59.823Z,100499.84
2023-07-18T10:15:02.056Z,100490.22
2023-07-18T10:18:18.377Z,100495.78
2023-07-18T10:21:32.733Z,100492.25
2023-07-18T10:24:34.658Z,100459.44
2023-07-18T10:27:44.713Z,100445.19
2023-07-18T10:30:47.638Z,100484.78
2023-07-18T10:34:11.852Z,100492.94
2023-07-18T10:37:15.655Z,100482.06
2023-07-18T10:40:32.986Z,100491.38
2023-07-18T10:43:34.828Z,100483.69
2023-07-18T10:46:37.963Z,100477.00
2023-07-18T10:49:40.115Z,100477.84
2023-07-18T10:52:42.261Z,100467.38
2023-07-18T10:55:46.850Z,100445.97
2023-07-18T10:58:50.370Z,100478.47
2023-07-18T11:01:53.164Z,100461.34
2023-07-18T11:04:55.208Z,100464.22
2023-07-18T11:07:57.270Z,100462.97
2023-07-18T11:11:05.713Z,100469.78
2023-07-18T11:14:07.630Z,100472.44
2023-07-18T11:17:14.621Z,100457.13
2023-07-18T11:20:17.861Z,100451.31
2023-07-18T11:23:19.837Z,100450.88
2023-07-18T11:26:21.654Z,100448.56
2023-07-18T11:29:27.121Z,100422.97
2023-07-18T11:32:33.737Z,100449.47
2023-07-18T11:35:36.046Z,100450.06
2023-07-18T11:38:40.172Z,100449.09
2023-07-18T11:41:41.985Z,100443.34
2023-07-18T11:44:45.190Z,100441.22
2023-07-18T11:47:50.089Z,100447.28
2023-07-18T11:50:52.436Z,100456.41
2023-07-18T11:53:55.133Z,100447.84
2023-07-18T11:56:57.076Z,100449.81
2023-07-18T11:59:59.878Z,100441.59
2023-07-18T12:03:01.805Z,100439.25
2023-07-18T12:06:03.814Z,100416.47
2023-07-18T12:09:06.121Z,100438.28
2023-07-18T12:12:08.418Z,100445.91
2023-07-18T12:15:12.256Z,100443.00
2023-07-18T12:18:14.141Z,100427.91
2023-07-18T12:21:16.057Z,100435.13
2023-07-18T12:24:19.647Z,100430.16
2023-07-18T12:27:21.555Z,100439.66
2023-07-18T12:30:23.337Z,100431.84
2023-07-18T12:33:25.277Z,100426.22
2023-07-18T12:36:27.202Z,100426.75
2023-07-18T12:39:28.988Z,100419.81
2023-07-18T12:42:30.787Z,100407.47
2023-07-18T12:45:32.915Z,100389.91
2023-07-18T12:48:35.249Z,100420.09
2023-07-18T12:51:36.998Z,100397.34
2023-07-18T12:54:38.850Z,100402.97
2023-07-18T12:57:40.611Z,100417.41
2023-07-18T13:00:42.562Z,100397.19
2023-07-18T13:03:44.506Z,100407.22
2023-07-18T13:06:46.534Z,100398.19
2023-07-18T13:09:48.439Z,100395.13
2023-07-18T13:12:50.269Z,100394.81
2023-07-18T13:15:52.700Z,100367.25
2023-07-18T13:18:55.383Z,100349.81
2023-07-18T13:21:57.257Z,100372.22
2023-07-18T13:24:59.077Z,100370.22
2023-07-18T13:28:00.989Z,100379.84
2023-07-18T13:31:02.981Z,100382.03
2023-07-18T13:34:05.213Z,100364.56
2023-07-18T13:37:07.412Z,100353.19
2023-07-18T13:40:09.615Z,100364.03
2023-07-18T13:43:11.864Z,100362.16
2023-07-18T13:46:15.818Z,100380.75
2023-07-18T13:49:17.901Z,100376.03
2023-07-18T13:52:23.254Z,100370.25
2023-07-18T13:55:25.460Z,100370.03
2023-07-18T13:58:27.338Z,100365.78
2023-07-18T14:01:29.237Z,100377.53
2023-07-18T14:04:31.213Z,100356.28
2023-07-18T14:07:36.301Z,100379.72
2023-07-18T14:10:38.611Z,100364.47
2023-07-18T14:13:43.195Z,100374.25
2023-07-18T14:16:48.192Z,100362.25
2023-07-18T14:19:50.117Z,100366.66
2023-07-18T14:22:52.554Z,100369.22
2023-07-18T14:25:54.454Z,100366.66
2023-07-18T14:28:56.389Z,100365.25
2023-07-18T14:31:58.218Z,100333.88
2023-07-18T14:35:02.194Z,100348.09
2023-07-18T14:38:04.262Z,100349.91
2023-07-18T14:41:06.229Z,100332.97
2023-07-18T14:44:08.082Z,100330.25
2023-07-18T14:47:09.985Z,100338.28
2023-07-18T14:50:11.903Z,100340.34
2023-07-18T14:53:13.759Z,100324.41
2023-07-18T14:56:15.677Z,100334.91
2023-07-18T14:59:17.444Z,100327.09
2023-07-18T15:02:19.345Z,100324.75
2023-07-18T15:05:21.413Z,100307.28
2023-07-18T15:08:23.645Z,100324.75
2023-07-18T15:11:29.689Z,100315.47
2023-07-18T15:14:31.608Z,100286.28
2023-07-18T15:17:44.288Z,100307.84
2023-07-18T15:20:46.697Z,100294.63
2023-07-18T15:23:48.566Z,100276.63
2023-07-18T15:26:50.374Z,100279.16
2023-07-18T15:29:52.180Z,100282.03
2023-07-18T15:32:54.438Z,100272.56
2023-07-18T15:35:56.395Z,100270.00
2023-07-18T15:38:58.232Z,100269.53
2023-07-18T15:42:00.069Z,100252.00
2023-07-18T15:45:02.445Z,100267.47
2023-07-18T15:48:04.579Z,100252.53
2023-07-18T15:51:06.345Z,100280.38
2023-07-18T15:54:08.230Z,100282.22
2023-07-18T15:57:11.260Z,100274.06
2023-07-18T16:00:13.537Z,100270.34
2023-07-18T16:03:15.439Z,100246.09
2023-07-18T16:06:18.699Z,100258.66
2023-07-18T16:09:27.640Z,100281.88
2023-07-18T16:12:29.975Z,100276.63
2023-07-18T16:15:32.033Z,100274.25
2023-07-18T16:18:33.912Z,100284.75
2023-07-18T16:21:36.299Z,100288.50
2023-07-18T16:24:40.075Z,100245.41
2023-07-18T16:27:41.863Z,100280.00
2023-07-18T16:30:43.961Z,100272.53
2023-07-18T16:33:46.132Z,100284.91
2023-07-18T16:36:48.805Z,100268.47
2023-07-18T16:39:53.139Z,100270.19
2023-07-18T16:42:57.546Z,100258.97
2023-07-18T16:45:59.478Z,100221.78
2023-07-18T16:49:02.323Z,100245.41
2023-07-18T16:52:04.402Z,100206.84
2023-07-18T16:55:06.478Z,100221.28
2023-07-18T16:58:09.504Z,100226.53
2023-07-18T17:01:15.381Z,100216.69
2023-07-18T17:04:18.753Z,100229.91
2023-07-18T17:07:20.684Z,100220.56
2023-07-18T17:10:23.287Z,100205.47
2023-07-18T17:13:25.415Z,100199.53
2023-07-18T17:16:27.223Z,100175.78
2023-07-18T17:19:29.130Z,100158.94
2023-07-18T17:22:31.065Z,100187.63
2023-07-18T17:25:33.343Z,100183.19
2023-07-18T17:28:35.208Z,100198.72
2023-07-18T17:31:37.082Z,100202.09
2023-07-18T17:34:38.943Z,100198.28
2023-07-18T17:37:41.563Z,100216.06
2023-07-18T17:40:43.500Z,100237.47
2023-07-18T17:43:45.289Z,100242.72
2023-07-18T17:46:48.073Z,100246.50
2023-07-18T17:49:50.231Z,100247.13
2023-07-18T17:52:52.107Z,100246.69
2023-07-18T17:55:54.010Z,100246.22
2023-07-18T17:58:55.854Z,100254.03
2023-07-18T18:01:57.844Z,100258.66
2023-07-18T18:04:59.880Z,100236.94
2023-07-18T18:08:04.681Z,100142.91
2023-07-18T18:11:06.651Z,100222.72
2023-07-18T18:14:08.979Z,100207.53
2023-07-18T18:17:11.140Z,100239.66
2023-07-18T18:20:13.366Z,100236.03
2023-07-18T18:23:27.589Z,100239.25
2023-07-18T18:26:40.063Z,100251.72
2023-07-18T18:29:42.945Z,100244.50
2023-07-18T18:32:46.047Z,100236.72
2023-07-18T18:35:48.021Z,100235.84
2023-07-18T18:38:50.037Z,100253.75
2023-07-18T18:41:52.036Z,100261.69
2023-07-18T18:44:54.370Z,100260.31
2023-07-18T18:47:57.229Z,100267.97
2023-07-18T18:51:00.964Z,100222.28
2023-07-18T18:54:02.796Z,100269.13
2023-07-18T18:57:04.907Z,100254.94
2023-07-18T19:00:09.501Z,100275.25
2023-07-18T19:03:11.607Z,100246.56
2023-07-18T19:06:13.754Z,100270.84
2023-07-18T19:09:15.808Z,100279.06
2023-07-18T19:12:17.849Z,100294.66
2023-07-18T19:15:20.293Z,100281.06
2023-07-18T19:18:22.257Z,100296.78
2023-07-18T19:21:24.184Z,100308.00
2023-07-18T19:24:26.027Z,100309.09
2023-07-18T19:27:27.878Z,100316.19
2023-07-18T19:30:29.781Z,100311.25
2023-07-18T19:33:31.641Z,100306.81
2023-07-18T19:36:35.461Z,100257.31
2023-07-18T19:39:37.960Z,100319.63
2023-07-18T19:42:39.850Z,100297.72
2023-07-18T19:45:41.801Z,100303.38
2023-07-18T19:48:43.827Z,100292.28
2023-07-18T19:51:45.662Z,100273.16
2023-07-18T19:54:47.588Z,100300.00
2023-07-18T19:57:49.427Z,100285.78
2023-07-18T20:00:51.288Z,100277.63
2023-07-18T20:03:59.499Z,100295.50
2023-07-18T20:07:02.216Z,100283.78
2023-07-18T20:10:04.380Z,100250.25
2023-07-18T20:13:06.198Z,100182.97
2023-07-18T20:16:08.079Z,100273.94
2023-07-18T20:19:10.074Z,100260.41
2023-07-18T20:22:12.201Z,100256.50
2023-07-18T20:25:14.277Z,100251.59
2023-07-18T20:28:17.293Z,100237.91
2023-07-18T20:31:19.575Z,100115.41
2023-07-18T20:34:21.709Z,100215.72
2023-07-18T20:37:23.700Z,100222.66
2023-07-18T20:40:25.834Z,100218.66
2023-07-18T20:43:28.454Z,100196.94
2023-07-18T20:46:30.608Z,100200.75
2023-07-18T20:49:32.467Z,100205.47
2023-07-18T20:52:34.317Z,100202.28
2023-07-18T20:55:36.179Z,100195.09
2023-07-18T20:58:38.098Z,100201.13
2023-07-18T21:01:40.584Z,100193.78
2023-07-18T21:04:42.563Z,100197.94
2023-07-18T21:07:44.357Z,100152.34
2023-07-18T21:10:46.786Z,100197.44
2023-07-18T21:13:48.596Z,100202.09
2023-07-18T21:16:50.461Z,100154.31
2023-07-18T21:19:52.238Z,100204.53
2023-07-18T21:22:54.042Z,100201.13
2023-07-18T21:25:57.569Z,100193.78
2023-07-18T21:29:04.643Z,100188.91
2023-07-18T21:32:07.777Z,100187.47
2023-07-18T21:35:10.065Z,100195.63
2023-07-18T21:38:12.151Z,100192.06
2023-07-18T21:41:13.961Z,100187.00
2023-07-18T21:44:15.826Z,100182.94
2023-07-18T21:47:17.593Z,100180.38
2023-07-18T21:50:19.339Z,100183.94
2023-07-18T21:53:21.132Z,100151.81
2023-07-18T21:56:23.320Z,100085.25
2023-07-18T21:59:26.350Z,100196.00
2023-07-18T22:02:35.323Z,100201.81
2023-07-18T22:05:37.641Z,100153.03
2023-07-18T22:08:39.447Z,100176.19
2023-07-18T22:11:41.264Z,100141.53
2023-07-18T22:14:43.197Z,100177.16
2023-07-18T22:17:45.000Z,100172.22
2023-07-18T22:20:46.918Z,100185.03
2023-07-18T22:23:48.669Z,100180.22
2023-07-18T22:26:50.903Z,100178.16
2023-07-18T22:29:52.900Z,100164.00
2023-07-18T22:32:54.753Z,100183.72
2023-07-18T22:35:56.605Z,100178.34
2023-07-18T22:38:58.473Z,100167.47
2023-07-18T22:42:21.210Z,100161.34
2023-07-18T22:45:23.094Z,100136.91
2023-07-18T22:48:25.024Z,100110.34
2023-07-18T22:51:26.780Z,100155.00
2023-07-18T22:54:29.524Z,100151.94
2023-07-18T22:57:31.656Z,100161.22
2023-07-18T23:00:33.531Z,100143.38
2023-07-18T23:03:35.573Z,100154.31
2023-07-18T23:06:38.200Z,100144.81
2023-07-18T23:09:40.235Z,100141.19
2023-07-18T23:12:42.074Z,100106.56
2023-07-18T23:15:43.842Z,100141.03
2023-07-18T23:18:45.731Z,100146.13
2023-07-18T23:21:47.613Z,100141.44
2023-07-18T23:24:49.376Z,100129.75
2023-07-18T23:27:51.123Z,100126.00
2023-07-18T23:30:53.101Z,100127.81
2023-07-18T23:33:55.010Z,100112.09
2023-07-18T23:36:57.088Z,100094.75
2023-07-18T23:39:59.023Z,100105.91
2023-07-18T23:43:00.814Z,100105.16
2023-07-18T23:46:03.544Z,100069.47
2023-07-18T23:49:05.386Z,100093.72
2023-07-18T23:52:07.577Z,100098.03
2023-07-18T23:55:09.598Z,100082.59
2023-07-18T23:58:11.545Z,100088.78
